sensor_id;sensor_type;location;lat;lon;timestamp;temperature;humidity
11035;DHT22;5571;48.110;-1.706;2023-09-19T00:00:43;15.90;99.90
11035;DHT22;5571;48.110;-1.706;2023-09-19T00:03:12;15.90;99.90
11035;DHT22;5571;48.110;-1.706;2023-09-19T00:05:38;15.90;99.90
11035;DHT22;5571;48.110;-1.706;2023-09-19T00:08:04;15.80;99.90
11035;DHT22;5571;48.110;-1.706;2023-09-19T00:10:32;15.70;99.90
11035;DHT22;5571;48.110;-1.706;2023-09-19T00:13:00;15.70;99.90
11035;DHT22;5571;48.110;-1.706;2023-09-19T00:15:31;15.70;99.90
11035;DHT22;5571;48.110;-1.706;2023-09-19T00:18:01;15.70;99.90
11035;DHT22;5571;48.110;-1.706;2023-09-19T00:20:26;15.70;99.90
11035;DHT22;5571;48.110;-1.706;2023-09-19T00:22:55;15.70;99.90
11035;DHT22;5571;48.110;-1.706;2023-09-19T00:25:20;15.60;99.90
11035;DHT22;5571;48.110;-1.706;2023-09-19T00:27:47;15.70;99.90
11035;DHT22;5571;48.110;-1.706;2023-09-19T00:30:16;15.60;99.90
11035;DHT22;5571;48.110;-1.706;2023-09-19T00:32:47;15.60;99.90
11035;DHT22;5571;48.110;-1.706;2023-09-19T00:35:14;15.60;99.90
11035;DHT22;5571;48.110;-1.706;2023-09-19T00:37:41;15.60;99.90
11035;DHT22;5571;48.110;-1.706;2023-09-19T00:40:07;15.60;99.90
11035;DHT22;5571;48.110;-1.706;2023-09-19T00:42:40;15.50;99.90
11035;DHT22;5571;48.110;-1.706;2023-09-19T00:45:07;15.60;99.90
11035;DHT22;5571;48.110;-1.706;2023-09-19T00:47:36;15.60;99.90
11035;DHT22;5571;48.110;-1.706;2023-09-19T00:50:04;15.60;99.90
11035;DHT22;5571;48.110;-1.706;2023-09-19T00:52:34;15.60;99.90
11035;DHT22;5571;48.110;-1.706;2023-09-19T00:55:02;15.60;99.90
11035;DHT22;5571;48.110;-1.706;2023-09-19T00:57:29;15.70;99.90
11035;DHT22;5571;48.110;-1.706;2023-09-19T00:59:55;15.70;99.90
11035;DHT22;5571;48.110;-1.706;2023-09-19T01:02:22;15.60;99.90
11035;DHT22;5571;48.110;-1.706;2023-09-19T01:04:48;15.60;99.90
11035;DHT22;5571;48.110;-1.706;2023-09-19T01:07:14;15.60;99.90
11035;DHT22;5571;48.110;-1.706;2023-09-19T01:09:41;15.60;99.90
11035;DHT22;5571;48.110;-1.706;2023-09-19T01:12:08;15.60;99.90
11035;DHT22;5571;48.110;-1.706;2023-09-19T01:15:06;15.50;99.90
11035;DHT22;5571;48.110;-1.706;2023-09-19T01:21:23;15.50;99.90
11035;DHT22;5571;48.110;-1.706;2023-09-19T01:24:06;15.50;99.90
11035;DHT22;5571;48.110;-1.706;2023-09-19T01:31:59;15.40;99.90
11035;DHT22;5571;48.110;-1.706;2023-09-19T01:34:27;15.40;99.90
11035;DHT22;5571;48.110;-1.706;2023-09-19T01:36:52;15.40;99.90
11035;DHT22;5571;48.110;-1.706;2023-09-19T01:39:18;15.40;99.90
11035;DHT22;5571;48.110;-1.706;2023-09-19T01:47:44;15.20;99.90
11035;DHT22;5571;48.110;-1.706;2023-09-19T01:53:33;15.30;99.90
11035;DHT22;5571;48.110;-1.706;2023-09-19T01:55:59;15.20;99.90
11035;DHT22;5571;48.110;-1.706;2023-09-19T01:58:43;15.30;99.90
11035;DHT22;5571;48.110;-1.706;2023-09-19T02:01:12;15.20;99.90
11035;DHT22;5571;48.110;-1.706;2023-09-19T02:03:40;15.20;99.90
11035;DHT22;5571;48.110;-1.706;2023-09-19T02:06:06;15.30;99.90
11035;DHT22;5571;48.110;-1.706;2023-09-19T02:08:36;15.30;99.90
11035;DHT22;5571;48.110;-1.706;2023-09-19T02:11:02;15.20;99.90
11035;DHT22;5571;48.110;-1.706;2023-09-19T02:13:28;15.30;99.90
11035;DHT22;5571;48.110;-1.706;2023-09-19T02:15:55;15.30;99.90
11035;DHT22;5571;48.110;-1.706;2023-09-19T02:18:21;15.30;99.90
11035;DHT22;5571;48.110;-1.706;2023-09-19T02:20:47;15.30;99.90
11035;DHT22;5571;48.110;-1.706;2023-09-19T02:23:13;15.40;99.90
11035;DHT22;5571;48.110;-1.706;2023-09-19T02:25:39;15.40;99.90
11035;DHT22;5571;48.110;-1.706;2023-09-19T02:28:06;15.40;99.90
11035;DHT22;5571;48.110;-1.706;2023-09-19T02:30:32;15.50;99.90
11035;DHT22;5571;48.110;-1.706;2023-09-19T02:32:58;15.40;99.90
11035;DHT22;5571;48.110;-1.706;2023-09-19T02:35:27;15.40;99.90
11035;DHT22;5571;48.110;-1.706;2023-09-19T02:37:53;15.40;99.90
11035;DHT22;5571;48.110;-1.706;2023-09-19T02:40:19;15.40;99.90
11035;DHT22;5571;48.110;-1.706;2023-09-19T02:42:48;15.30;99.90
11035;DHT22;5571;48.110;-1.706;2023-09-19T02:45:18;15.30;99.90
11035;DHT22;5571;48.110;-1.706;2023-09-19T02:47:44;15.20;99.90
11035;DHT22;5571;48.110;-1.706;2023-09-19T02:50:10;15.20;99.90
11035;DHT22;5571;48.110;-1.706;2023-09-19T02:52:45;15.20;99.90
11035;DHT22;5571;48.110;-1.706;2023-09-19T02:55:13;15.20;99.90
11035;DHT22;5571;48.110;-1.706;2023-09-19T02:57:53;15.10;99.90
11035;DHT22;5571;48.110;-1.706;2023-09-19T03:00:23;15.10;99.90
11035;DHT22;5571;48.110;-1.706;2023-09-19T03:02:54;15.10;99.90
11035;DHT22;5571;48.110;-1.706;2023-09-19T03:05:21;15.10;99.90
11035;DHT22;5571;48.110;-1.706;2023-09-19T03:07:47;15.10;99.90
11035;DHT22;5571;48.110;-1.706;2023-09-19T03:10:17;15.10;99.90
11035;DHT22;5571;48.110;-1.706;2023-09-19T03:12:43;15.10;99.90
11035;DHT22;5571;48.110;-1.706;2023-09-19T03:15:09;15.10;99.90
11035;DHT22;5571;48.110;-1.706;2023-09-19T03:17:35;15.10;99.90
11035;DHT22;5571;48.110;-1.706;2023-09-19T03:20:01;15.00;99.90
11035;DHT22;5571;48.110;-1.706;2023-09-19T03:22:27;15.10;99.90
11035;DHT22;5571;48.110;-1.706;2023-09-19T03:24:53;15.00;99.90
11035;DHT22;5571;48.110;-1.706;2023-09-19T03:27:19;15.00;99.90
11035;DHT22;5571;48.110;-1.706;2023-09-19T03:29:46;15.00;99.90
11035;DHT22;5571;48.110;-1.706;2023-09-19T03:32:12;15.10;99.90
11035;DHT22;5571;48.110;-1.706;2023-09-19T03:34:38;15.10;99.90
11035;DHT22;5571;48.110;-1.706;2023-09-19T03:37:08;15.00;99.90
11035;DHT22;5571;48.110;-1.706;2023-09-19T03:39:34;15.00;99.90
11035;DHT22;5571;48.110;-1.706;2023-09-19T03:42:01;15.10;99.90
11035;DHT22;5571;48.110;-1.706;2023-09-19T03:44:26;15.10;99.90
11035;DHT22;5571;48.110;-1.706;2023-09-19T03:46:52;15.00;99.90
11035;DHT22;5571;48.110;-1.706;2023-09-19T03:49:17;15.00;99.90
11035;DHT22;5571;48.110;-1.706;2023-09-19T03:51:44;15.10;99.90
11035;DHT22;5571;48.110;-1.706;2023-09-19T03:54:10;15.10;99.90
11035;DHT22;5571;48.110;-1.706;2023-09-19T03:56:35;15.10;99.90
11035;DHT22;5571;48.110;-1.706;2023-09-19T03:59:01;15.10;99.90
11035;DHT22;5571;48.110;-1.706;2023-09-19T04:01:26;15.00;99.90
11035;DHT22;5571;48.110;-1.706;2023-09-19T04:03:53;15.00;99.90
11035;DHT22;5571;48.110;-1.706;2023-09-19T04:06:19;15.00;99.90
11035;DHT22;5571;48.110;-1.706;2023-09-19T04:08:44;15.00;99.90
11035;DHT22;5571;48.110;-1.706;2023-09-19T04:11:11;15.10;99.90
11035;DHT22;5571;48.110;-1.706;2023-09-19T04:13:37;15.00;99.90
11035;DHT22;5571;48.110;-1.706;2023-09-19T04:16:03;14.90;99.90
11035;DHT22;5571;48.110;-1.706;2023-09-19T04:18:35;14.90;99.90
11035;DHT22;5571;48.110;-1.706;2023-09-19T04:21:03;14.90;99.90
11035;DHT22;5571;48.110;-1.706;2023-09-19T04:23:31;14.90;99.90
11035;DHT22;5571;48.110;-1.706;2023-09-19T04:25:57;15.00;99.90
11035;DHT22;5571;48.110;-1.706;2023-09-19T04:28:23;15.00;99.90
11035;DHT22;5571;48.110;-1.706;2023-09-19T04:30:50;14.90;99.90
11035;DHT22;5571;48.110;-1.706;2023-09-19T04:33:15;15.00;99.90
11035;DHT22;5571;48.110;-1.706;2023-09-19T04:35:42;15.00;99.90
11035;DHT22;5571;48.110;-1.706;2023-09-19T04:38:08;15.00;99.90
11035;DHT22;5571;48.110;-1.706;2023-09-19T04:40:34;14.90;99.90
11035;DHT22;5571;48.110;-1.706;2023-09-19T04:43:00;14.90;99.90
11035;DHT22;5571;48.110;-1.706;2023-09-19T04:45:27;14.90;99.90
11035;DHT22;5571;48.110;-1.706;2023-09-19T04:47:53;14.90;99.90
11035;DHT22;5571;48.110;-1.706;2023-09-19T04:50:20;14.90;99.90
11035;DHT22;5571;48.110;-1.706;2023-09-19T04:52:49;14.90;99.90
11035;DHT22;5571;48.110;-1.706;2023-09-19T04:55:16;14.90;99.90
11035;DHT22;5571;48.110;-1.706;2023-09-19T04:57:49;14.90;99.90
11035;DHT22;5571;48.110;-1.706;2023-09-19T05:00:16;14.80;99.90
11035;DHT22;5571;48.110;-1.706;2023-09-19T05:02:45;14.80;99.90
11035;DHT22;5571;48.110;-1.706;2023-09-19T05:05:11;14.90;99.90
11035;DHT22;5571;48.110;-1.706;2023-09-19T05:07:39;14.90;99.90
11035;DHT22;5571;48.110;-1.706;2023-09-19T05:10:05;14.90;99.90
11035;DHT22;5571;48.110;-1.706;2023-09-19T05:12:35;15.00;99.90
11035;DHT22;5571;48.110;-1.706;2023-09-19T05:15:05;14.90;99.90
11035;DHT22;5571;48.110;-1.706;2023-09-19T05:17:35;14.90;99.90
11035;DHT22;5571;48.110;-1.706;2023-09-19T05:20:02;14.80;99.90
11035;DHT22;5571;48.110;-1.706;2023-09-19T05:22:43;14.90;99.90
11035;DHT22;5571;48.110;-1.706;2023-09-19T05:25:12;14.90;99.90
11035;DHT22;5571;48.110;-1.706;2023-09-19T05:27:42;15.00;99.90
11035;DHT22;5571;48.110;-1.706;2023-09-19T05:30:08;15.00;99.90
11035;DHT22;5571;48.110;-1.706;2023-09-19T05:32:34;15.00;99.90
11035;DHT22;5571;48.110;-1.706;2023-09-19T05:35:00;15.10;99.90
11035;DHT22;5571;48.110;-1.706;2023-09-19T05:37:25;15.10;99.90
11035;DHT22;5571;48.110;-1.706;2023-09-19T05:39:51;15.00;99.90
11035;DHT22;5571;48.110;-1.706;2023-09-19T05:42:19;15.00;99.90
11035;DHT22;5571;48.110;-1.706;2023-09-19T05:44:44;15.10;99.90
11035;DHT22;5571;48.110;-1.706;2023-09-19T05:47:10;15.00;99.90
11035;DHT22;5571;48.110;-1.706;2023-09-19T05:49:36;15.00;99.90
11035;DHT22;5571;48.110;-1.706;2023-09-19T05:52:08;15.00;99.90
11035;DHT22;5571;48.110;-1.706;2023-09-19T05:54:33;15.00;99.90
11035;DHT22;5571;48.110;-1.706;2023-09-19T05:57:00;15.00;99.90
11035;DHT22;5571;48.110;-1.706;2023-09-19T05:59:27;14.90;99.90
11035;DHT22;5571;48.110;-1.706;2023-09-19T06:01:53;14.90;99.90
11035;DHT22;5571;48.110;-1.706;2023-09-19T06:04:18;14.90;99.90
11035;DHT22;5571;48.110;-1.706;2023-09-19T06:06:47;14.90;99.90
11035;DHT22;5571;48.110;-1.706;2023-09-19T06:09:14;14.90;99.90
11035;DHT22;5571;48.110;-1.706;2023-09-19T06:11:42;14.90;99.90
11035;DHT22;5571;48.110;-1.706;2023-09-19T06:14:07;14.90;99.90
11035;DHT22;5571;48.110;-1.706;2023-09-19T06:16:33;14.90;99.90
11035;DHT22;5571;48.110;-1.706;2023-09-19T06:18:59;14.90;99.90
11035;DHT22;5571;48.110;-1.706;2023-09-19T06:21:26;15.00;99.90
11035;DHT22;5571;48.110;-1.706;2023-09-19T06:23:55;15.10;99.90
11035;DHT22;5571;48.110;-1.706;2023-09-19T06:26:23;15.10;99.90
11035;DHT22;5571;48.110;-1.706;2023-09-19T06:28:48;15.20;99.90
11035;DHT22;5571;48.110;-1.706;2023-09-19T06:31:14;15.20;99.90
11035;DHT22;5571;48.110;-1.706;2023-09-19T06:33:40;15.20;99.90
11035;DHT22;5571;48.110;-1.706;2023-09-19T06:36:06;15.20;99.90
11035;DHT22;5571;48.110;-1.706;2023-09-19T06:38:32;15.20;99.90
11035;DHT22;5571;48.110;-1.706;2023-09-19T06:41:02;15.10;99.90
11035;DHT22;5571;48.110;-1.706;2023-09-19T06:43:30;15.20;99.90
11035;DHT22;5571;48.110;-1.706;2023-09-19T06:45:56;15.30;99.90
11035;DHT22;5571;48.110;-1.706;2023-09-19T06:48:23;15.30;99.90
11035;DHT22;5571;48.110;-1.706;2023-09-19T06:50:50;15.30;99.90
11035;DHT22;5571;48.110;-1.706;2023-09-19T06:53:16;15.40;99.90
11035;DHT22;5571;48.110;-1.706;2023-09-19T06:55:42;15.30;99.90
11035;DHT22;5571;48.110;-1.706;2023-09-19T06:58:09;15.30;99.90
11035;DHT22;5571;48.110;-1.706;2023-09-19T07:00:36;15.40;99.90
11035;DHT22;5571;48.110;-1.706;2023-09-19T07:03:05;15.50;99.90
11035;DHT22;5571;48.110;-1.706;2023-09-19T07:05:34;15.40;99.90
11035;DHT22;5571;48.110;-1.706;2023-09-19T07:08:03;15.40;99.90
11035;DHT22;5571;48.110;-1.706;2023-09-19T07:10:30;15.50;99.90
11035;DHT22;5571;48.110;-1.706;2023-09-19T07:13:04;15.50;99.90
11035;DHT22;5571;48.110;-1.706;2023-09-19T07:15:32;15.60;99.90
11035;DHT22;5571;48.110;-1.706;2023-09-19T07:17:59;15.60;99.90
11035;DHT22;5571;48.110;-1.706;2023-09-19T07:20:26;15.70;99.90
11035;DHT22;5571;48.110;-1.706;2023-09-19T07:22:52;15.70;99.90
11035;DHT22;5571;48.110;-1.706;2023-09-19T07:25:20;15.70;99.90
11035;DHT22;5571;48.110;-1.706;2023-09-19T07:27:46;15.60;99.90
11035;DHT22;5571;48.110;-1.706;2023-09-19T07:30:12;15.60;99.90
11035;DHT22;5571;48.110;-1.706;2023-09-19T07:32:39;15.70;99.90
11035;DHT22;5571;48.110;-1.706;2023-09-19T07:35:06;15.70;99.90
11035;DHT22;5571;48.110;-1.706;2023-09-19T07:37:32;15.80;99.90
11035;DHT22;5571;48.110;-1.706;2023-09-19T07:40:02;15.90;99.90
11035;DHT22;5571;48.110;-1.706;2023-09-19T07:42:33;16.00;99.90
11035;DHT22;5571;48.110;-1.706;2023-09-19T07:45:01;16.10;99.90
11035;DHT22;5571;48.110;-1.706;2023-09-19T07:47:26;16.10;99.90
11035;DHT22;5571;48.110;-1.706;2023-09-19T07:49:52;16.20;99.90
11035;DHT22;5571;48.110;-1.706;2023-09-19T07:52:18;16.40;99.90
11035;DHT22;5571;48.110;-1.706;2023-09-19T07:54:44;16.60;99.90
11035;DHT22;5571;48.110;-1.706;2023-09-19T07:57:10;16.70;99.90
11035;DHT22;5571;48.110;-1.706;2023-09-19T07:59:38;16.80;99.90
11035;DHT22;5571;48.110;-1.706;2023-09-19T08:02:05;16.90;99.90
11035;DHT22;5571;48.110;-1.706;2023-09-19T08:04:30;17.00;99.90
11035;DHT22;5571;48.110;-1.706;2023-09-19T08:06:59;17.00;99.90
11035;DHT22;5571;48.110;-1.706;2023-09-19T08:09:29;17.00;99.90
11035;DHT22;5571;48.110;-1.706;2023-09-19T08:11:59;17.10;99.90
11035;DHT22;5571;48.110;-1.706;2023-09-19T08:14:29;17.20;99.90
11035;DHT22;5571;48.110;-1.706;2023-09-19T08:16:58;17.20;99.90
11035;DHT22;5571;48.110;-1.706;2023-09-19T08:19:25;17.20;99.90
11035;DHT22;5571;48.110;-1.706;2023-09-19T08:21:55;17.30;99.90
11035;DHT22;5571;48.110;-1.706;2023-09-19T08:24:24;17.30;99.90
11035;DHT22;5571;48.110;-1.706;2023-09-19T08:26:50;17.40;99.90
11035;DHT22;5571;48.110;-1.706;2023-09-19T08:29:16;17.40;99.90
11035;DHT22;5571;48.110;-1.706;2023-09-19T08:31:43;17.50;99.90
11035;DHT22;5571;48.110;-1.706;2023-09-19T08:34:08;17.50;99.90
11035;DHT22;5571;48.110;-1.706;2023-09-19T08:36:34;17.40;99.90
11035;DHT22;5571;48.110;-1.706;2023-09-19T08:39:00;17.40;99.90
11035;DHT22;5571;48.110;-1.706;2023-09-19T08:41:26;17.50;99.90
11035;DHT22;5571;48.110;-1.706;2023-09-19T08:43:51;17.50;99.90
11035;DHT22;5571;48.110;-1.706;2023-09-19T08:46:20;17.60;99.90
11035;DHT22;5571;48.110;-1.706;2023-09-19T08:48:56;17.70;99.90
11035;DHT22;5571;48.110;-1.706;2023-09-19T08:51:28;17.70;99.90
11035;DHT22;5571;48.110;-1.706;2023-09-19T08:54:06;17.80;99.90
11035;DHT22;5571;48.110;-1.706;2023-09-19T08:56:33;17.90;99.90
11035;DHT22;5571;48.110;-1.706;2023-09-19T08:59:05;18.00;99.90
11035;DHT22;5571;48.110;-1.706;2023-09-19T09:01:33;18.20;99.90
11035;DHT22;5571;48.110;-1.706;2023-09-19T09:03:59;18.30;99.90
11035;DHT22;5571;48.110;-1.706;2023-09-19T09:06:26;18.50;99.90
11035;DHT22;5571;48.110;-1.706;2023-09-19T09:08:53;18.70;99.90
11035;DHT22;5571;48.110;-1.706;2023-09-19T09:11:20;18.70;99.90
11035;DHT22;5571;48.110;-1.706;2023-09-19T09:13:47;18.80;99.90
11035;DHT22;5571;48.110;-1.706;2023-09-19T09:16:13;18.90;99.90
11035;DHT22;5571;48.110;-1.706;2023-09-19T09:18:44;19.00;99.90
11035;DHT22;5571;48.110;-1.706;2023-09-19T09:21:11;19.00;99.90
11035;DHT22;5571;48.110;-1.706;2023-09-19T09:23:36;19.10;99.90
11035;DHT22;5571;48.110;-1.706;2023-09-19T09:26:02;19.20;99.90
11035;DHT22;5571;48.110;-1.706;2023-09-19T09:28:29;19.30;99.90
11035;DHT22;5571;48.110;-1.706;2023-09-19T09:30:55;19.30;99.90
11035;DHT22;5571;48.110;-1.706;2023-09-19T09:33:21;19.20;99.90
11035;DHT22;5571;48.110;-1.706;2023-09-19T09:38:19;19.10;99.90
11035;DHT22;5571;48.110;-1.706;2023-09-19T09:40:50;19.20;99.90
11035;DHT22;5571;48.110;-1.706;2023-09-19T09:43:37;19.30;99.90
11035;DHT22;5571;48.110;-1.706;2023-09-19T09:46:18;19.20;99.90
11035;DHT22;5571;48.110;-1.706;2023-09-19T09:49:04;19.20;99.90
11035;DHT22;5571;48.110;-1.706;2023-09-19T09:51:49;19.20;99.90
11035;DHT22;5571;48.110;-1.706;2023-09-19T09:54:29;19.20;99.90
11035;DHT22;5571;48.110;-1.706;2023-09-19T09:57:08;19.30;99.90
11035;DHT22;5571;48.110;-1.706;2023-09-19T10:02:16;19.50;99.90
11035;DHT22;5571;48.110;-1.706;2023-09-19T10:04:49;19.50;99.90
11035;DHT22;5571;48.110;-1.706;2023-09-19T10:07:32;19.60;99.90
11035;DHT22;5571;48.110;-1.706;2023-09-19T10:10:02;19.80;99.90
11035;DHT22;5571;48.110;-1.706;2023-09-19T10:12:39;19.80;99.90
11035;DHT22;5571;48.110;-1.706;2023-09-19T10:15:08;19.70;99.90
11035;DHT22;5571;48.110;-1.706;2023-09-19T10:17:36;19.70;99.90
11035;DHT22;5571;48.110;-1.706;2023-09-19T10:20:04;19.80;99.90
11035;DHT22;5571;48.110;-1.706;2023-09-19T10:22:44;20.00;99.90
11035;DHT22;5571;48.110;-1.706;2023-09-19T10:25:18;20.20;99.90
11035;DHT22;5571;48.110;-1.706;2023-09-19T10:27:49;20.20;99.90
11035;DHT22;5571;48.110;-1.706;2023-09-19T10:30:17;20.30;99.90
11035;DHT22;5571;48.110;-1.706;2023-09-19T10:32:43;20.30;99.90
11035;DHT22;5571;48.110;-1.706;2023-09-19T10:35:11;20.30;99.90
11035;DHT22;5571;48.110;-1.706;2023-09-19T10:37:39;20.50;99.90
11035;DHT22;5571;48.110;-1.706;2023-09-19T10:40:07;20.60;99.90
11035;DHT22;5571;48.110;-1.706;2023-09-19T10:42:38;20.70;99.90
11035;DHT22;5571;48.110;-1.706;2023-09-19T10:45:06;20.80;99.90
11035;DHT22;5571;48.110;-1.706;2023-09-19T10:47:38;20.70;99.90
11035;DHT22;5571;48.110;-1.706;2023-09-19T10:50:06;20.90;99.90
11035;DHT22;5571;48.110;-1.706;2023-09-19T10:52:32;20.90;99.90
11035;DHT22;5571;48.110;-1.706;2023-09-19T10:55:00;20.80;99.90
11035;DHT22;5571;48.110;-1.706;2023-09-19T10:57:26;20.80;99.90
11035;DHT22;5571;48.110;-1.706;2023-09-19T11:00:06;20.80;99.90
11035;DHT22;5571;48.110;-1.706;2023-09-19T11:05:37;20.80;99.90
11035;DHT22;5571;48.110;-1.706;2023-09-19T11:08:07;20.80;99.90
11035;DHT22;5571;48.110;-1.706;2023-09-19T11:10:49;20.80;99.90
11035;DHT22;5571;48.110;-1.706;2023-09-19T11:13:30;20.80;99.90
11035;DHT22;5571;48.110;-1.706;2023-09-19T11:16:03;20.90;99.90
11035;DHT22;5571;48.110;-1.706;2023-09-19T11:26:48;21.60;99.90
11035;DHT22;5571;48.110;-1.706;2023-09-19T11:29:27;21.70;99.90
11035;DHT22;5571;48.110;-1.706;2023-09-19T11:31:54;21.80;99.90
11035;DHT22;5571;48.110;-1.706;2023-09-19T11:40:08;21.80;99.90
11035;DHT22;5571;48.110;-1.706;2023-09-19T11:42:48;21.80;99.90
11035;DHT22;5571;48.110;-1.706;2023-09-19T11:48:14;22.20;99.90
11035;DHT22;5571;48.110;-1.706;2023-09-19T11:50:42;22.60;99.90
11035;DHT22;5571;48.110;-1.706;2023-09-19T11:53:11;22.60;99.90
11035;DHT22;5571;48.110;-1.706;2023-09-19T11:55:38;22.70;99.90
11035;DHT22;5571;48.110;-1.706;2023-09-19T11:58:05;22.40;99.90
11035;DHT22;5571;48.110;-1.706;2023-09-19T12:00:33;22.10;99.90
11035;DHT22;5571;48.110;-1.706;2023-09-19T12:03:09;22.10;99.90
11035;DHT22;5571;48.110;-1.706;2023-09-19T12:05:35;22.10;99.90
11035;DHT22;5571;48.110;-1.706;2023-09-19T12:08:05;22.00;99.90
11035;DHT22;5571;48.110;-1.706;2023-09-19T12:10:46;22.00;99.90
11035;DHT22;5571;48.110;-1.706;2023-09-19T12:13:18;22.00;99.90
11035;DHT22;5571;48.110;-1.706;2023-09-19T12:15:45;21.90;99.90
11035;DHT22;5571;48.110;-1.706;2023-09-19T12:18:26;21.90;99.90
11035;DHT22;5571;48.110;-1.706;2023-09-19T12:20:53;21.70;99.90
11035;DHT22;5571;48.110;-1.706;2023-09-19T12:23:20;21.60;99.90
11035;DHT22;5571;48.110;-1.706;2023-09-19T12:25:46;21.60;99.90
11035;DHT22;5571;48.110;-1.706;2023-09-19T12:28:16;21.40;99.90
11035;DHT22;5571;48.110;-1.706;2023-09-19T12:30:42;21.40;99.90
11035;DHT22;5571;48.110;-1.706;2023-09-19T12:33:18;21.50;99.90
11035;DHT22;5571;48.110;-1.706;2023-09-19T12:35:47;21.50;99.90
11035;DHT22;5571;48.110;-1.706;2023-09-19T12:38:25;21.40;99.90
11035;DHT22;5571;48.110;-1.706;2023-09-19T12:40:57;21.40;99.90
11035;DHT22;5571;48.110;-1.706;2023-09-19T12:43:29;21.30;99.90
11035;DHT22;5571;48.110;-1.706;2023-09-19T12:45:58;21.40;99.90
11035;DHT22;5571;48.110;-1.706;2023-09-19T12:48:25;21.30;99.90
11035;DHT22;5571;48.110;-1.706;2023-09-19T12:51:11;21.30;99.90
11035;DHT22;5571;48.110;-1.706;2023-09-19T12:53:43;21.20;99.90
11035;DHT22;5571;48.110;-1.706;2023-09-19T12:56:11;21.20;99.90
11035;DHT22;5571;48.110;-1.706;2023-09-19T13:01:19;21.20;99.90
11035;DHT22;5571;48.110;-1.706;2023-09-19T13:03:45;21.30;99.90
11035;DHT22;5571;48.110;-1.706;2023-09-19T13:06:11;21.20;99.90
11035;DHT22;5571;48.110;-1.706;2023-09-19T13:08:39;21.30;99.90
11035;DHT22;5571;48.110;-1.706;2023-09-19T13:11:10;21.20;99.90
11035;DHT22;5571;48.110;-1.706;2023-09-19T13:16:20;21.10;99.90
11035;DHT22;5571;48.110;-1.706;2023-09-19T13:18:54;21.20;99.90
11035;DHT22;5571;48.110;-1.706;2023-09-19T13:21:31;21.10;99.90
11035;DHT22;5571;48.110;-1.706;2023-09-19T13:24:24;21.20;99.90
11035;DHT22;5571;48.110;-1.706;2023-09-19T13:26:53;21.20;99.90
11035;DHT22;5571;48.110;-1.706;2023-09-19T13:29:19;21.10;99.90
11035;DHT22;5571;48.110;-1.706;2023-09-19T13:31:49;21.20;99.90
11035;DHT22;5571;48.110;-1.706;2023-09-19T13:34:15;21.20;99.90
11035;DHT22;5571;48.110;-1.706;2023-09-19T13:36:43;21.20;99.90
11035;DHT22;5571;48.110;-1.706;2023-09-19T13:39:09;21.10;99.90
11035;DHT22;5571;48.110;-1.706;2023-09-19T13:41:35;21.10;99.90
11035;DHT22;5571;48.110;-1.706;2023-09-19T13:44:04;21.10;99.90
11035;DHT22;5571;48.110;-1.706;2023-09-19T13:46:30;21.20;99.90
11035;DHT22;5571;48.110;-1.706;2023-09-19T13:48:59;21.30;99.90
11035;DHT22;5571;48.110;-1.706;2023-09-19T13:51:26;21.30;99.90
11035;DHT22;5571;48.110;-1.706;2023-09-19T13:53:53;21.20;99.90
11035;DHT22;5571;48.110;-1.706;2023-09-19T13:56:19;21.20;99.90
11035;DHT22;5571;48.110;-1.706;2023-09-19T13:58:45;21.20;99.90
11035;DHT22;5571;48.110;-1.706;2023-09-19T14:01:10;21.20;99.90
11035;DHT22;5571;48.110;-1.706;2023-09-19T14:03:41;21.20;99.90
11035;DHT22;5571;48.110;-1.706;2023-09-19T14:06:12;21.30;99.90
11035;DHT22;5571;48.110;-1.706;2023-09-19T14:08:37;21.50;99.90
11035;DHT22;5571;48.110;-1.706;2023-09-19T14:11:07;21.60;99.90
11035;DHT22;5571;48.110;-1.706;2023-09-19T14:13:33;21.60;99.90
11035;DHT22;5571;48.110;-1.706;2023-09-19T14:16:06;21.60;99.90
11035;DHT22;5571;48.110;-1.706;2023-09-19T14:18:32;21.70;99.90
11035;DHT22;5571;48.110;-1.706;2023-09-19T14:20:58;21.80;99.90
11035;DHT22;5571;48.110;-1.706;2023-09-19T14:23:23;21.80;99.90
11035;DHT22;5571;48.110;-1.706;2023-09-19T14:25:50;21.90;99.90
11035;DHT22;5571;48.110;-1.706;2023-09-19T14:28:17;22.00;99.90
11035;DHT22;5571;48.110;-1.706;2023-09-19T14:30:43;21.90;99.90
11035;DHT22;5571;48.110;-1.706;2023-09-19T14:33:09;22.00;99.90
11035;DHT22;5571;48.110;-1.706;2023-09-19T14:35:37;21.80;99.90
11035;DHT22;5571;48.110;-1.706;2023-09-19T14:38:03;21.70;99.90
11035;DHT22;5571;48.110;-1.706;2023-09-19T14:40:29;21.50;99.90
11035;DHT22;5571;48.110;-1.706;2023-09-19T14:42:54;21.40;99.90
11035;DHT22;5571;48.110;-1.706;2023-09-19T14:45:20;21.40;99.90
11035;DHT22;5571;48.110;-1.706;2023-09-19T14:47:46;21.30;99.90
11035;DHT22;5571;48.110;-1.706;2023-09-19T14:50:12;21.30;99.90
11035;DHT22;5571;48.110;-1.706;2023-09-19T14:52:38;21.20;99.90
11035;DHT22;5571;48.110;-1.706;2023-09-19T14:55:06;21.10;99.90
11035;DHT22;5571;48.110;-1.706;2023-09-19T14:57:32;21.10;99.90
11035;DHT22;5571;48.110;-1.706;2023-09-19T14:59:58;21.10;99.90
11035;DHT22;5571;48.110;-1.706;2023-09-19T15:02:24;21.00;99.90
11035;DHT22;5571;48.110;-1.706;2023-09-19T15:04:51;21.00;99.90
11035;DHT22;5571;48.110;-1.706;2023-09-19T15:07:18;21.00;99.90
11035;DHT22;5571;48.110;-1.706;2023-09-19T15:09:44;21.00;99.90
11035;DHT22;5571;48.110;-1.706;2023-09-19T15:12:09;21.10;99.90
11035;DHT22;5571;48.110;-1.706;2023-09-19T15:14:40;21.00;99.90
11035;DHT22;5571;48.110;-1.706;2023-09-19T15:17:07;21.10;99.90
11035;DHT22;5571;48.110;-1.706;2023-09-19T15:19:32;21.00;99.90
11035;DHT22;5571;48.110;-1.706;2023-09-19T15:21:58;21.00;99.90
11035;DHT22;5571;48.110;-1.706;2023-09-19T15:24:24;21.00;99.90
11035;DHT22;5571;48.110;-1.706;2023-09-19T15:26:52;21.00;99.90
11035;DHT22;5571;48.110;-1.706;2023-09-19T15:29:17;21.00;99.90
11035;DHT22;5571;48.110;-1.706;2023-09-19T15:31:43;21.10;99.90
11035;DHT22;5571;48.110;-1.706;2023-09-19T15:34:09;21.00;99.90
11035;DHT22;5571;48.110;-1.706;2023-09-19T15:36:34;21.00;99.90
11035;DHT22;5571;48.110;-1.706;2023-09-19T15:39:02;21.00;99.90
11035;DHT22;5571;48.110;-1.706;2023-09-19T15:41:31;21.00;99.90
11035;DHT22;5571;48.110;-1.706;2023-09-19T15:43:57;21.00;99.90
11035;DHT22;5571;48.110;-1.706;2023-09-19T15:46:25;20.90;99.90
11035;DHT22;5571;48.110;-1.706;2023-09-19T15:48:55;20.90;99.90
11035;DHT22;5571;48.110;-1.706;2023-09-19T15:51:22;20.90;99.90
11035;DHT22;5571;48.110;-1.706;2023-09-19T15:53:49;20.80;99.90
11035;DHT22;5571;48.110;-1.706;2023-09-19T15:56:16;20.80;99.90
11035;DHT22;5571;48.110;-1.706;2023-09-19T15:58:44;20.70;99.90
11035;DHT22;5571;48.110;-1.706;2023-09-19T16:01:10;20.80;99.90
11035;DHT22;5571;48.110;-1.706;2023-09-19T16:03:37;20.80;99.90
11035;DHT22;5571;48.110;-1.706;2023-09-19T16:06:14;20.80;99.90
11035;DHT22;5571;48.110;-1.706;2023-09-19T16:08:40;20.70;99.90
11035;DHT22;5571;48.110;-1.706;2023-09-19T16:11:07;20.70;99.90
11035;DHT22;5571;48.110;-1.706;2023-09-19T16:13:32;20.80;99.90
11035;DHT22;5571;48.110;-1.706;2023-09-19T16:15:58;20.80;99.90
11035;DHT22;5571;48.110;-1.706;2023-09-19T16:18:24;20.80;99.90
11035;DHT22;5571;48.110;-1.706;2023-09-19T16:20:49;20.80;99.90
11035;DHT22;5571;48.110;-1.706;2023-09-19T16:23:15;20.80;99.90
11035;DHT22;5571;48.110;-1.706;2023-09-19T16:25:41;20.90;99.90